Monterrey Gen Maria, Mexico

9:02 PM EST on August 27, 2016 (GMT -0500)
Gen Mariano Escobedo International | | Change Station

Elev 1270 ft 25.78 °N, 100.11 °W | Updated 11 minutes ago

Mostly Cloudy
Mostly Cloudy
86 °F
Feels Like 87 °F
N
0
Wind Variable Wind from North

Today
High -- | Low -- °F
--% Chance of Precip.
Yesterday
High -- | Low -- °F
Precip. -- in
Pressure 29.92 in
Visibility 15.0 miles
Clouds Scattered Clouds 4000 ft
Mostly Cloudy 6000 ft
Mostly Cloudy 20000 ft
Heat Index 87 °F
Dew Point 64 °F
Humidity 48%
Rainfall 0.00 in
Snow Depth Not available.
7:18 AM 8:04 PM
Waning Crescent, 19% visible
METAR MMMY 280151Z 00000KT 15SM SCT040 BKN060 BKN200 30/18 A2992 RMK 8/802
Pressure 29.92 in
Visibility 15.0 miles
Clouds Scattered Clouds 4000 ft
Mostly Cloudy 6000 ft
Mostly Cloudy 20000 ft
Heat Index 87 °F
Dew Point 64 °F
Humidity 48%
Rainfall 0.00 in
Snow Depth Not available.
7:18 AM 8:04 PM
Waning Crescent, 19% visible
METAR MMMY 280151Z 00000KT 15SM SCT040 BKN060 BKN200 30/18 A2992 RMK 8/802

10-Day Weather Forecast

No radar image for this location.
×

Almanac

Astronomy

Aug. 27, 2016 Rise Set
Actual Time
Civil Twilight
Nautical Twilight
Astronomical Twilight
Moon
Length of Visible Light
Length of Day
Tomorrow will be .
, % of the Moon is Illuminated

Today's Extremes

Country Highs Country Lows

Community

WunderPhotos

Upload Photos

1,935,491 photos uploaded!

WunderBlog® & News

Nearby

Air Quality

  Air Quality AQ Index Pollutant
Not available.

Snow Depth

Station Depth Elevation

Earthquake Activity

City Distance Mag. Time & Date
Minimum magnitude displayed is 2.5.

Coastal Water Temperatures

Place Temperature

Stations

Nearby Weather Stations

Station Location Temp. Windchill Dew Point Humidity Wind Precip. Elev Updated Type